createdAt,value
2019-01-12T00:00:52.099Z,94.21
2019-01-12T00:01:52.110Z,94.10
2019-01-12T00:02:52.049Z,93.85
2019-01-12T00:03:52.030Z,93.79
2019-01-12T00:04:52.010Z,94.00
2019-01-12T00:05:51.997Z,94.10
2019-01-12T00:06:51.985Z,94.31
2019-01-12T00:07:52.013Z,94.27
2019-01-12T00:08:52.014Z,94.17
2019-01-12T00:09:52.005Z,95.09
2019-01-12T00:10:51.996Z,94.52
2019-01-12T00:11:51.933Z,95.14
2019-01-12T00:12:51.918Z,94.72
2019-01-12T00:13:51.910Z,95.14
2019-01-12T00:14:51.897Z,95.14
2019-01-12T00:15:51.891Z,94.62
2019-01-12T00:16:51.928Z,94.89
2019-01-12T00:17:51.868Z,94.82
2019-01-12T00:18:51.895Z,94.93
2019-01-12T00:19:51.845Z,94.72
2019-01-12T00:20:51.831Z,94.72
2019-01-12T00:21:51.826Z,94.31
2019-01-12T00:22:51.820Z,94.31
2019-01-12T00:23:51.804Z,94.52
2019-01-12T00:24:51.832Z,95.14
2019-01-12T00:25:51.817Z,94.93
2019-01-12T00:26:51.770Z,94.31
2019-01-12T00:27:51.761Z,94.62
2019-01-12T00:28:51.752Z,94.52
2019-01-12T00:29:51.741Z,93.79
2019-01-12T00:30:51.771Z,93.90
2019-01-12T00:31:51.763Z,93.59
2019-01-12T00:32:51.711Z,93.90
2019-01-12T00:33:51.697Z,94.10
2019-01-12T00:34:51.681Z,94.00
2019-01-12T00:35:51.711Z,93.69
2019-01-12T00:36:51.703Z,94.10
2019-01-12T00:37:51.662Z,94.21
2019-01-12T00:38:51.638Z,93.18
2019-01-12T00:39:51.625Z,94.10
2019-01-12T00:40:51.672Z,94.00
2019-01-12T00:41:51.645Z,92.97
2019-01-12T00:42:51.591Z,94.00
2019-01-12T00:43:51.587Z,93.28
2019-01-12T00:44:51.571Z,93.28
2019-01-12T00:45:51.559Z,93.59
2019-01-12T00:46:51.548Z,93.49
2019-01-12T00:47:51.578Z,93.49
2019-01-12T00:48:51.543Z,93.07
2019-01-12T00:49:51.513Z,92.66
2019-01-12T00:50:51.504Z,92.66
2019-01-12T00:51:51.493Z,92.35
2019-01-12T00:52:51.484Z,92.97
2019-01-12T00:53:51.514Z,92.97
2019-01-12T00:54:51.482Z,92.97
2019-01-12T00:55:51.449Z,92.97
2019-01-12T00:56:51.436Z,92.46
2019-01-12T00:57:51.425Z,92.25
2019-01-12T00:58:51.417Z,92.35
2019-01-12T00:59:51.456Z,91.83
2019-01-12T01:00:51.430Z,91.73
2019-01-12T01:01:51.384Z,91.22
2019-01-12T01:02:51.374Z,91.22
2019-01-12T01:03:51.379Z,91.32
2019-01-12T01:04:51.356Z,91.22
2019-01-12T01:05:51.381Z,91.42
2019-01-12T01:06:51.328Z,91.42
2019-01-12T01:07:51.323Z,91.01
2019-01-12T01:08:51.366Z,90.59
2019-01-12T01:09:52.264Z,90.91
2019-01-12T01:10:51.289Z,90.59
2019-01-12T01:11:51.272Z,90.70
2019-01-12T01:12:51.265Z,90.70
2019-01-12T01:13:51.293Z,90.49
2019-01-12T01:14:51.261Z,91.11
2019-01-12T01:15:51.234Z,91.01
2019-01-12T01:16:51.221Z,90.91
2019-01-12T01:17:51.211Z,90.70
2019-01-12T01:18:51.239Z,90.91
2019-01-12T01:19:51.186Z,91.11
2019-01-12T01:20:51.180Z,90.74
2019-01-12T01:21:51.174Z,90.70
2019-01-12T01:22:51.151Z,90.80
2019-01-12T01:23:51.189Z,90.91
2019-01-12T01:24:51.133Z,90.59
2019-01-12T01:25:51.119Z,90.64
2019-01-12T01:26:51.109Z,90.70
2019-01-12T01:27:51.122Z,91.22
2019-01-12T01:28:51.090Z,90.80
2019-01-12T01:29:51.134Z,90.70
2019-01-12T01:30:51.070Z,90.70
2019-01-12T01:31:51.059Z,91.22
2019-01-12T01:32:51.047Z,90.74
2019-01-12T01:33:51.035Z,90.70
2019-01-12T01:34:51.022Z,90.91
2019-01-12T01:35:51.063Z,90.80
2019-01-12T01:36:51.000Z,90.70
2019-01-12T01:37:51.011Z,90.91
2019-01-12T01:38:51.024Z,90.49
2019-01-12T01:39:50.966Z,90.70
2019-01-12T01:40:51.017Z,90.70
2019-01-12T01:41:50.955Z,90.59
2019-01-12T01:42:50.937Z,91.22
2019-01-12T01:43:50.928Z,91.11
2019-01-12T01:44:50.914Z,91.11
2019-01-12T01:45:50.902Z,90.59
2019-01-12T01:46:50.931Z,90.91
2019-01-12T01:47:50.877Z,90.91
2019-01-12T01:48:50.951Z,90.70
2019-01-12T01:49:50.863Z,89.87
2019-01-12T01:50:50.851Z,90.49
2019-01-12T01:51:50.833Z,89.98
2019-01-12T01:52:50.822Z,89.87
2019-01-12T01:53:50.857Z,89.87
2019-01-12T01:54:52.886Z,90.28
2019-01-12T01:55:50.797Z,89.87
2019-01-12T01:56:50.782Z,89.56
2019-01-12T01:57:50.771Z,89.36
2019-01-12T01:58:50.757Z,89.56
2019-01-12T01:59:50.798Z,89.77
2019-01-12T02:00:50.737Z,89.67
2019-01-12T02:01:50.733Z,89.36
2019-01-12T02:02:50.719Z,89.15
2019-01-12T02:03:50.718Z,89.46
2019-01-12T02:04:50.694Z,89.67
2019-01-12T02:05:50.735Z,89.67
2019-01-12T02:06:50.678Z,89.81
2019-01-12T02:07:50.664Z,89.98
2019-01-12T02:08:50.650Z,90.08
2019-01-12T02:09:50.644Z,89.56
2019-01-12T02:10:50.653Z,89.46
2019-01-12T02:11:50.653Z,89.46
2019-01-12T02:12:50.612Z,89.67
2019-01-12T02:13:50.592Z,89.56
2019-01-12T02:14:50.642Z,90.28
2019-01-12T02:15:50.571Z,89.87
2019-01-12T02:16:50.566Z,89.67
2019-01-12T02:17:50.606Z,89.67
2019-01-12T02:18:50.564Z,89.67
2019-01-12T02:19:50.528Z,89.56
2019-01-12T02:20:50.572Z,90.08
2019-01-12T02:21:50.509Z,89.98
2019-01-12T02:22:50.495Z,89.81
2019-01-12T02:23:50.487Z,89.05
2019-01-12T02:24:50.475Z,89.92
2019-01-12T02:25:50.462Z,89.15
2019-01-12T02:26:50.508Z,89.46
2019-01-12T02:27:50.445Z,89.67
2019-01-12T02:28:50.490Z,89.25
2019-01-12T02:29:50.417Z,88.43
2019-01-12T02:30:50.415Z,88.64
2019-01-12T02:31:50.397Z,89.05
2019-01-12T02:32:50.385Z,89.09
2019-01-12T02:33:50.378Z,89.36
2019-01-12T02:34:50.439Z,89.56
2019-01-12T02:35:50.360Z,89.36
2019-01-12T02:36:50.344Z,89.67
2019-01-12T02:37:50.383Z,89.98
2019-01-12T02:38:50.322Z,90.28
2019-01-12T02:39:50.308Z,91.01
2019-01-12T02:40:50.336Z,90.49
2019-01-12T02:41:50.324Z,90.84
2019-01-12T02:42:50.275Z,90.74
2019-01-12T02:43:50.305Z,91.16
2019-01-12T02:44:50.249Z,91.36
2019-01-12T02:45:50.248Z,91.56
2019-01-12T02:46:50.273Z,91.46
2019-01-12T02:47:50.233Z,91.46
2019-01-12T02:48:50.207Z,91.67
2019-01-12T02:49:50.197Z,91.56
2019-01-12T02:50:50.228Z,92.60
2019-01-12T02:51:50.183Z,91.92
2019-01-12T02:52:50.169Z,92.33
2019-01-12T02:53:50.160Z,92.50
2019-01-12T02:54:50.148Z,92.19
2019-01-12T02:55:50.193Z,92.74
2019-01-12T02:56:50.122Z,93.16
2019-01-12T02:57:50.168Z,92.70
2019-01-12T02:58:50.101Z,92.91
2019-01-12T02:59:50.098Z,93.12
2019-01-12T03:00:50.088Z,92.70
2019-01-12T03:01:50.076Z,93.12
2019-01-12T03:02:50.051Z,92.50
2019-01-12T03:03:50.075Z,92.70
2019-01-12T03:04:50.038Z,93.12
2019-01-12T03:05:50.028Z,92.95
2019-01-12T03:06:50.012Z,91.88
2019-01-12T03:07:50.013Z,91.56
2019-01-12T03:08:49.991Z,92.80
2019-01-12T03:09:50.016Z,92.50
2019-01-12T03:10:49.976Z,91.88
2019-01-12T03:11:49.957Z,92.80
2019-01-12T03:12:49.945Z,92.60
2019-01-12T03:13:49.950Z,92.40
2019-01-12T03:14:49.927Z,92.08
2019-01-12T03:15:49.981Z,91.67
2019-01-12T03:16:49.903Z,91.88
2019-01-12T03:17:49.888Z,91.56
2019-01-12T03:18:49.881Z,91.77
2019-01-12T03:19:49.868Z,91.63
2019-01-12T03:20:49.862Z,91.67
2019-01-12T03:21:49.879Z,91.98
2019-01-12T03:22:49.885Z,91.16
2019-01-12T03:23:49.829Z,91.56
2019-01-12T03:24:49.815Z,91.88
2019-01-12T03:25:49.837Z,91.26
2019-01-12T03:26:49.794Z,91.26
2019-01-12T03:27:49.780Z,91.56
2019-01-12T03:28:49.775Z,91.73
2019-01-12T03:29:49.771Z,91.67
2019-01-12T03:30:49.779Z,91.67
2019-01-12T03:31:49.742Z,92.60
2019-01-12T03:32:49.732Z,91.56
2019-01-12T03:33:49.727Z,92.08
2019-01-12T03:34:49.705Z,91.46
2019-01-12T03:35:49.692Z,91.42
2019-01-12T03:36:49.725Z,91.36
2019-01-12T03:37:49.674Z,91.67
2019-01-12T03:38:49.702Z,91.83
2019-01-12T03:39:49.648Z,91.94
2019-01-12T03:40:49.640Z,91.32
2019-01-12T03:41:49.625Z,91.36
2019-01-12T03:42:49.645Z,91.32
2019-01-12T03:43:49.614Z,90.84
2019-01-12T03:44:49.626Z,90.49
2019-01-12T03:45:49.580Z,90.95
2019-01-12T03:46:49.645Z,90.64
2019-01-12T03:47:49.593Z,90.49
2019-01-12T03:48:49.549Z,90.08
2019-01-12T03:49:49.538Z,90.08
2019-01-12T03:50:49.535Z,90.84
2019-01-12T03:51:49.552Z,90.59
2019-01-12T03:52:49.507Z,90.74
2019-01-12T03:53:49.499Z,90.43
2019-01-12T03:54:49.507Z,90.43
2019-01-12T03:55:49.476Z,90.02
2019-01-12T03:56:49.498Z,90.80
2019-01-12T03:57:49.477Z,90.70
2019-01-12T03:58:49.441Z,90.28
2019-01-12T03:59:49.427Z,89.61
2019-01-12T04:00:49.447Z,90.64
2019-01-12T04:01:49.411Z,90.74
2019-01-12T04:02:49.402Z,90.70
2019-01-12T04:03:49.394Z,90.33
2019-01-12T04:04:49.371Z,89.77
2019-01-12T04:05:49.399Z,90.08
2019-01-12T04:06:49.349Z,89.77
2019-01-12T04:07:49.343Z,90.02
2019-01-12T04:08:49.334Z,89.81
2019-01-12T04:09:49.364Z,90.43
2019-01-12T04:10:49.310Z,90.12
2019-01-12T04:11:49.297Z,90.02
2019-01-12T04:12:49.330Z,89.71
2019-01-12T04:13:49.278Z,89.92
2019-01-12T04:14:49.265Z,89.61
2019-01-12T04:15:49.292Z,89.56
2019-01-12T04:16:49.257Z,90.12
2019-01-12T04:17:49.232Z,89.71
2019-01-12T04:18:49.251Z,89.71
2019-01-12T04:19:49.207Z,89.29
2019-01-12T04:20:49.206Z,90.12
2019-01-12T04:21:49.186Z,90.12
2019-01-12T04:22:49.216Z,89.29
2019-01-12T04:23:49.195Z,89.19
2019-01-12T04:24:49.154Z,89.81
2019-01-12T04:25:49.147Z,89.71
2019-01-12T04:26:49.134Z,89.61
2019-01-12T04:27:49.127Z,90.22
2019-01-12T04:28:49.108Z,89.29
2019-01-12T04:29:49.141Z,89.81
2019-01-12T04:30:49.090Z,89.29
2019-01-12T04:31:49.077Z,89.40
2019-01-12T04:32:49.109Z,88.78
2019-01-12T04:33:49.058Z,89.15
2019-01-12T04:34:49.044Z,89.09
2019-01-12T04:35:49.030Z,89.81
2019-01-12T04:36:49.031Z,89.50
2019-01-12T04:37:49.017Z,89.15
2019-01-12T04:38:49.035Z,88.68
2019-01-12T04:39:48.989Z,88.98
2019-01-12T04:40:49.006Z,89.19
2019-01-12T04:41:48.966Z,89.46
2019-01-12T04:42:48.965Z,89.61
2019-01-12T04:43:48.947Z,89.56
2019-01-12T04:44:48.964Z,90.22
2019-01-12T04:45:48.934Z,89.29
2019-01-12T04:46:48.917Z,89.71
2019-01-12T04:47:48.904Z,89.29
2019-01-12T04:48:48.892Z,88.89
2019-01-12T04:49:48.911Z,88.98
2019-01-12T04:50:48.869Z,88.89
2019-01-12T04:51:48.858Z,89.50
2019-01-12T04:52:48.877Z,89.50
2019-01-12T04:53:48.838Z,89.29
2019-01-12T04:54:48.828Z,89.09
2019-01-12T04:55:48.845Z,88.89
2019-01-12T04:56:48.810Z,89.19
2019-01-12T04:57:48.932Z,88.78
2019-01-12T04:58:48.791Z,88.57
2019-01-12T04:59:48.770Z,89.05
2019-01-12T05:00:48.762Z,89.19
2019-01-12T05:01:48.748Z,89.09
2019-01-12T05:02:48.737Z,89.61
2019-01-12T05:03:48.774Z,89.46
2019-01-12T05:04:48.716Z,89.29
2019-01-12T05:05:48.704Z,88.47
2019-01-12T05:06:48.741Z,88.64
2019-01-12T05:07:48.684Z,89.29
2019-01-12T05:08:48.675Z,88.78
2019-01-12T05:09:48.673Z,89.15
2019-01-12T05:10:48.657Z,89.09
2019-01-12T05:11:48.677Z,89.09
2019-01-12T05:12:48.659Z,89.09
2019-01-12T05:13:48.615Z,88.89
2019-01-12T05:14:48.617Z,88.98
2019-01-12T05:15:48.632Z,88.68
2019-01-12T05:16:48.583Z,88.98
2019-01-12T05:17:48.578Z,89.09
2019-01-12T05:18:48.563Z,88.57
2019-01-12T05:19:48.553Z,88.89
2019-01-12T05:20:48.590Z,88.78
2019-01-12T05:21:48.530Z,88.32
2019-01-12T05:22:48.520Z,88.78
2019-01-12T05:23:48.510Z,88.57
2019-01-12T05:24:48.501Z,89.09
2019-01-12T05:25:49.068Z,89.09
2019-01-12T05:26:48.511Z,89.15
2019-01-12T05:27:48.465Z,90.02
2019-01-12T05:28:48.488Z,90.33
2019-01-12T05:29:48.441Z,90.12
2019-01-12T05:30:48.432Z,89.61
2019-01-12T05:31:48.422Z,89.92
2019-01-12T05:32:48.410Z,90.64
2019-01-12T05:33:48.397Z,92.02
2019-01-12T05:34:48.512Z,92.19
2019-01-12T05:35:48.389Z,92.08
2019-01-12T05:36:48.364Z,92.29
2019-01-12T05:37:48.367Z,91.77
2019-01-12T05:38:48.342Z,91.98
2019-01-12T05:39:48.332Z,91.92
2019-01-12T05:40:48.360Z,90.99
2019-01-12T05:41:48.309Z,91.16
2019-01-12T05:42:48.299Z,90.78
2019-01-12T05:43:48.288Z,90.64
2019-01-12T05:44:48.278Z,90.78
2019-01-12T05:45:48.282Z,91.05
2019-01-12T05:46:48.374Z,91.20
2019-01-12T05:47:48.254Z,90.99
2019-01-12T05:48:48.242Z,90.89
2019-01-12T05:49:48.225Z,90.68
2019-01-12T05:50:48.212Z,91.30
2019-01-12T05:51:48.201Z,91.09
2019-01-12T05:52:48.218Z,90.74
2019-01-12T05:53:48.179Z,90.99
2019-01-12T05:54:48.169Z,91.30
2019-01-12T05:55:48.164Z,91.56
2019-01-12T05:56:48.181Z,90.99
2019-01-12T05:57:48.138Z,90.99
2019-01-12T05:58:48.124Z,91.09
2019-01-12T05:59:48.113Z,89.86
2019-01-12T06:00:48.131Z,90.78
2019-01-12T06:01:48.178Z,90.26
2019-01-12T06:02:48.084Z,90.12
2019-01-12T06:03:48.113Z,89.92
2019-01-12T06:04:48.059Z,90.64
2019-01-12T06:05:48.052Z,90.74
2019-01-12T06:06:48.086Z,90.12
2019-01-12T06:07:48.039Z,90.26
2019-01-12T06:08:48.022Z,90.58
2019-01-12T06:09:48.016Z,90.06
2019-01-12T06:10:48.000Z,90.64
2019-01-12T06:11:47.981Z,90.84
2019-01-12T06:12:48.002Z,90.84
2019-01-12T06:13:47.980Z,91.20
2019-01-12T06:14:47.967Z,90.68
2019-01-12T06:15:47.953Z,90.16
2019-01-12T06:16:47.927Z,90.12
2019-01-12T06:17:47.960Z,90.16
2019-01-12T06:18:47.912Z,89.50
2019-01-12T06:19:47.914Z,88.61
2019-01-12T06:20:47.895Z,89.44
2019-01-12T06:21:47.871Z,89.09
2019-01-12T06:22:47.882Z,89.40
2019-01-12T06:23:47.885Z,89.86
2019-01-12T06:24:47.851Z,89.81
2019-01-12T06:25:47.833Z,88.98
2019-01-12T06:26:47.824Z,89.34
2019-01-12T06:27:47.811Z,90.26
2019-01-12T06:28:47.807Z,88.78
2019-01-12T06:29:47.828Z,89.19
2019-01-12T06:30:47.771Z,89.65
2019-01-12T06:31:47.786Z,90.06
2019-01-12T06:32:47.796Z,89.44
2019-01-12T06:33:47.746Z,89.75
2019-01-12T06:34:47.729Z,89.95
2019-01-12T06:35:47.722Z,89.03
2019-01-12T06:36:47.730Z,89.19
2019-01-12T06:37:47.745Z,88.89
2019-01-12T06:38:47.692Z,89.13
2019-01-12T06:39:47.681Z,89.13
2019-01-12T06:40:47.738Z,87.74
2019-01-12T06:41:47.704Z,87.89
2019-01-12T06:42:47.649Z,88.31
2019-01-12T06:43:47.629Z,88.71
2019-01-12T06:44:47.684Z,88.41
2019-01-12T06:45:47.632Z,87.89
2019-01-12T06:46:47.605Z,87.68
2019-01-12T06:47:47.594Z,87.34
2019-01-12T06:48:47.580Z,87.07
2019-01-12T06:49:47.571Z,86.76
2019-01-12T06:50:47.607Z,87.27
2019-01-12T06:51:47.545Z,87.48
2019-01-12T06:52:47.541Z,86.34
2019-01-12T06:53:47.563Z,86.24
2019-01-12T06:54:47.542Z,86.34
2019-01-12T06:55:47.528Z,86.30
2019-01-12T06:56:47.497Z,86.30
2019-01-12T06:57:47.514Z,86.34
2019-01-12T06:58:47.466Z,85.72
2019-01-12T06:59:47.455Z,86.24
2019-01-12T07:00:47.462Z,85.83
2019-01-12T07:01:47.469Z,85.89
2019-01-12T07:02:47.429Z,85.27
2019-01-12T07:03:47.410Z,85.78
2019-01-12T07:04:47.416Z,85.31
2019-01-12T07:05:47.405Z,86.03
2019-01-12T07:06:47.392Z,83.10
2019-01-12T07:07:47.401Z,83.76
2019-01-12T07:08:47.366Z,84.34
2019-01-12T07:09:47.361Z,83.31
2019-01-12T07:10:47.343Z,82.48
2019-01-12T07:11:47.359Z,83.10
2019-01-12T07:12:47.326Z,82.59
2019-01-12T07:13:47.347Z,82.89
2019-01-12T07:14:47.333Z,82.69
2019-01-12T07:15:47.322Z,83.45
2019-01-12T07:16:47.279Z,82.93
2019-01-12T07:17:47.266Z,83.41
2019-01-12T07:18:47.257Z,83.45
2019-01-12T07:19:47.237Z,82.93
2019-01-12T07:20:47.259Z,82.69
2019-01-12T07:21:47.221Z,84.03
2019-01-12T07:22:47.208Z,82.89
2019-01-12T07:23:47.195Z,83.45
2019-01-12T07:24:47.194Z,83.20
2019-01-12T07:25:47.181Z,83.65
2019-01-12T07:26:47.192Z,83.14
2019-01-12T07:27:47.157Z,84.75
2019-01-12T07:28:47.140Z,83.55
2019-01-12T07:29:47.149Z,83.10
2019-01-12T07:30:47.149Z,83.31
2019-01-12T07:31:47.119Z,83.10
2019-01-12T07:32:47.116Z,82.89
2019-01-12T07:33:47.102Z,82.79
2019-01-12T07:34:47.083Z,83.31
2019-01-12T07:35:47.071Z,83.10
2019-01-12T07:36:47.085Z,84.75
2019-01-12T07:37:47.061Z,85.10
2019-01-12T07:38:47.074Z,84.23
2019-01-12T07:39:47.054Z,84.03
2019-01-12T07:40:47.012Z,82.89
2019-01-12T07:41:46.999Z,82.48
2019-01-12T07:42:46.990Z,83.41
2019-01-12T07:43:46.984Z,83.17
2019-01-12T07:44:46.983Z,82.48
2019-01-12T07:45:46.992Z,82.89
2019-01-12T07:46:46.953Z,83.31
2019-01-12T07:47:46.929Z,83.72
2019-01-12T07:48:46.935Z,83.41
2019-01-12T07:49:46.910Z,83.51
2019-01-12T07:50:46.901Z,82.38
2019-01-12T07:51:46.919Z,82.59
2019-01-12T07:52:46.894Z,83.10
2019-01-12T07:53:46.868Z,83.51
2019-01-12T07:54:47.871Z,83.51
2019-01-12T07:55:46.903Z,82.79
2019-01-12T07:56:46.845Z,82.48
2019-01-12T07:57:46.826Z,83.10
2019-01-12T07:58:46.826Z,82.45
2019-01-12T07:59:46.798Z,82.69
2019-01-12T08:00:46.787Z,82.69
2019-01-12T08:01:46.806Z,82.48
2019-01-12T08:02:46.771Z,83.48
2019-01-12T08:03:46.768Z,84.09
2019-01-12T08:04:46.808Z,82.86
2019-01-12T08:05:46.742Z,82.55
2019-01-12T08:06:46.749Z,82.75
2019-01-12T08:07:46.749Z,83.83
2019-01-12T08:08:46.729Z,83.00
2019-01-12T08:09:46.694Z,83.31
2019-01-12T08:10:46.682Z,82.79
2019-01-12T08:11:46.667Z,82.28
2019-01-12T08:12:46.661Z,81.82
2019-01-12T08:13:46.731Z,81.86
2019-01-12T08:14:46.644Z,83.10
2019-01-12T08:15:46.623Z,82.38
2019-01-12T08:16:46.625Z,82.55
2019-01-12T08:17:46.619Z,82.34
2019-01-12T08:18:46.591Z,82.24
2019-01-12T08:19:46.648Z,81.41
2019-01-12T08:20:46.595Z,81.82
2019-01-12T08:21:46.556Z,82.14
2019-01-12T08:22:46.551Z,82.45
2019-01-12T08:23:46.537Z,82.86
2019-01-12T08:24:46.531Z,81.51
2019-01-12T08:25:46.547Z,80.58
2019-01-12T08:26:46.504Z,81.21
2019-01-12T08:27:46.492Z,81.72
2019-01-12T08:28:46.488Z,81.68
2019-01-12T08:29:46.473Z,82.03
2019-01-12T08:30:46.472Z,81.21
2019-01-12T08:31:46.480Z,80.96
2019-01-12T08:32:46.436Z,81.48
2019-01-12T08:33:46.420Z,80.86
2019-01-12T08:34:46.414Z,81.07
2019-01-12T08:35:46.437Z,80.14
2019-01-12T08:36:46.388Z,79.55
2019-01-12T08:37:46.379Z,80.38
2019-01-12T08:38:46.377Z,80.90
2019-01-12T08:39:46.363Z,79.45
2019-01-12T08:40:46.352Z,79.97
2019-01-12T08:41:46.397Z,80.28
2019-01-12T08:42:46.358Z,80.90
2019-01-12T08:43:46.338Z,81.31
2019-01-12T08:44:46.315Z,80.62
2019-01-12T08:45:46.320Z,79.76
2019-01-12T08:46:46.290Z,80.11
2019-01-12T08:47:46.332Z,80.58
2019-01-12T08:48:46.256Z,81.56
2019-01-12T08:49:46.262Z,80.07
2019-01-12T08:50:46.270Z,79.86
2019-01-12T08:51:46.229Z,80.58
2019-01-12T08:52:46.215Z,81.00
2019-01-12T08:53:46.365Z,79.76
2019-01-12T08:54:46.205Z,81.31
2019-01-12T08:55:46.191Z,80.07
2019-01-12T08:56:46.197Z,79.66
2019-01-12T08:57:46.169Z,79.66
2019-01-12T08:58:46.211Z,78.83
2019-01-12T08:59:46.207Z,80.04
2019-01-12T09:00:46.126Z,80.76
2019-01-12T09:01:46.116Z,80.04
2019-01-12T09:02:46.103Z,79.52
2019-01-12T09:03:46.127Z,78.18
2019-01-12T09:04:46.123Z,78.80
2019-01-12T09:05:46.115Z,79.31
2019-01-12T09:06:46.057Z,77.94
2019-01-12T09:07:46.075Z,78.24
2019-01-12T09:08:46.070Z,79.07
2019-01-12T09:09:46.060Z,78.62
2019-01-12T09:10:46.048Z,77.42
2019-01-12T09:11:46.016Z,76.59
2019-01-12T09:12:46.009Z,77.22
2019-01-12T09:13:46.047Z,77.83
2019-01-12T09:14:45.974Z,77.42
2019-01-12T09:15:45.984Z,78.76
2019-01-12T09:16:45.978Z,77.97
2019-01-12T09:17:45.974Z,77.42
2019-01-12T09:18:45.998Z,78.04
2019-01-12T09:19:45.959Z,77.62
2019-01-12T09:20:45.906Z,78.66
2019-01-12T09:21:45.914Z,79.07
2019-01-12T09:22:45.884Z,77.83
2019-01-12T09:23:45.880Z,78.55
2019-01-12T09:24:45.887Z,77.42
2019-01-12T09:25:45.882Z,78.34
2019-01-12T09:26:45.840Z,77.22
2019-01-12T09:27:45.829Z,77.52
2019-01-12T09:28:45.819Z,77.42
2019-01-12T09:29:45.814Z,77.31
2019-01-12T09:30:48.593Z,76.39
2019-01-12T09:31:45.827Z,76.29
2019-01-12T09:32:45.775Z,76.90
2019-01-12T09:33:45.762Z,76.49
2019-01-12T09:34:45.762Z,77.22
2019-01-12T09:35:45.745Z,76.29
2019-01-12T09:36:45.731Z,75.15
2019-01-12T09:37:45.776Z,75.87
2019-01-12T09:38:45.702Z,74.95
2019-01-12T09:39:45.697Z,75.36
2019-01-12T09:40:45.685Z,74.43
2019-01-12T09:41:45.752Z,74.36
2019-01-12T09:42:45.667Z,74.43
2019-01-12T09:43:45.712Z,74.84
2019-01-12T09:44:45.652Z,74.22
2019-01-12T09:45:45.631Z,74.63
2019-01-12T09:46:45.624Z,74.22
2019-01-12T09:47:45.612Z,74.33
2019-01-12T09:48:45.600Z,75.01
2019-01-12T09:49:45.659Z,74.08
2019-01-12T09:50:45.585Z,74.40
2019-01-12T09:51:45.573Z,74.80
2019-01-12T09:52:45.571Z,73.16
2019-01-12T09:53:45.558Z,74.40
2019-01-12T09:54:45.538Z,74.29
2019-01-12T09:55:45.553Z,73.78
2019-01-12T09:56:51.560Z,73.68
2019-01-12T09:57:46.516Z,73.26
2019-01-12T09:58:45.532Z,73.91
2019-01-12T09:59:45.477Z,73.88
2019-01-12T10:00:45.466Z,74.08
2019-01-12T10:02:54.892Z,74.05
2019-01-12T10:03:54.842Z,73.26
2019-01-12T10:04:54.823Z,73.64
2019-01-12T10:05:55.378Z,72.61
2019-01-12T10:06:54.871Z,72.30
2019-01-12T10:07:54.871Z,74.05
2019-01-12T10:08:54.780Z,72.47
2019-01-12T10:09:54.787Z,72.92
2019-01-12T10:10:54.764Z,73.30
2019-01-12T10:11:54.745Z,74.02
2019-01-12T10:12:54.747Z,72.47
2019-01-12T10:13:54.797Z,72.37
2019-01-12T10:14:54.722Z,73.81
2019-01-12T10:15:54.713Z,71.55
2019-01-12T10:16:54.703Z,72.27
2019-01-12T10:17:54.717Z,73.91
2019-01-12T10:18:54.687Z,72.99
2019-01-12T10:19:54.679Z,73.19
2019-01-12T10:20:54.658Z,72.88
2019-01-12T10:21:54.632Z,71.44
2019-01-12T10:22:54.719Z,71.55
2019-01-12T10:23:54.613Z,72.47
2019-01-12T10:24:54.603Z,72.37
2019-01-12T10:25:54.623Z,72.06
2019-01-12T10:26:58.541Z,71.24
2019-01-12T10:27:54.569Z,70.72
2019-01-12T10:28:54.596Z,70.62
2019-01-12T10:29:54.551Z,70.86
2019-01-12T10:30:54.602Z,72.23
2019-01-12T10:31:54.527Z,73.85
2019-01-12T10:32:54.518Z,72.92
2019-01-12T10:33:54.520Z,72.30
2019-01-12T10:34:54.489Z,72.09
2019-01-12T10:35:54.501Z,70.96
2019-01-12T10:36:54.531Z,71.89
2019-01-12T10:37:54.478Z,71.37
2019-01-12T10:38:54.465Z,72.51
2019-01-12T10:39:54.433Z,72.09
2019-01-12T10:40:54.429Z,70.76
2019-01-12T10:41:54.423Z,71.99
2019-01-12T10:42:54.525Z,71.58
2019-01-12T10:43:54.434Z,73.02
2019-01-12T10:44:54.385Z,71.99
2019-01-12T10:45:54.374Z,72.37
2019-01-12T10:46:54.358Z,72.06
2019-01-12T10:47:54.350Z,72.27
2019-01-12T10:48:54.399Z,72.16
2019-01-12T10:49:54.346Z,72.06
2019-01-12T10:50:54.370Z,70.96
2019-01-12T10:51:54.301Z,71.96
2019-01-12T10:52:54.355Z,70.86
2019-01-12T10:53:54.283Z,70.45
2019-01-12T10:54:54.306Z,70.76
2019-01-12T10:55:54.255Z,72.58
2019-01-12T10:56:54.298Z,72.88
2019-01-12T10:57:54.276Z,72.47
2019-01-12T10:58:54.248Z,72.06
2019-01-12T10:59:54.257Z,71.96
2019-01-12T11:00:54.240Z,72.47
2019-01-12T11:01:54.196Z,71.24
2019-01-12T11:02:54.184Z,70.62
2019-01-12T11:03:54.170Z,72.41
2019-01-12T11:04:54.156Z,72.41
2019-01-12T11:05:54.157Z,71.48
2019-01-12T11:06:54.198Z,72.20
2019-01-12T11:07:54.133Z,73.23
2019-01-12T11:08:54.131Z,72.61
2019-01-12T11:09:54.104Z,72.41
2019-01-12T11:10:54.130Z,74.33
2019-01-12T11:11:54.094Z,73.19
2019-01-12T11:12:54.104Z,71.75
2019-01-12T11:13:54.113Z,72.16
2019-01-12T11:14:54.045Z,73.09
2019-01-12T11:15:54.062Z,71.96
2019-01-12T11:16:54.061Z,72.58
2019-01-12T11:17:54.027Z,72.47
2019-01-12T11:18:54.099Z,72.16
2019-01-12T11:19:54.058Z,72.06
2019-01-12T11:20:53.988Z,73.50
2019-01-12T11:22:01.656Z,72.16
2019-01-12T11:22:53.964Z,71.55
2019-01-12T11:23:53.956Z,72.16
2019-01-12T11:24:54.028Z,73.91
2019-01-12T11:25:53.932Z,73.81
2019-01-12T11:26:53.930Z,72.99
2019-01-12T11:27:53.904Z,72.68
2019-01-12T11:28:53.896Z,72.27
2019-01-12T11:29:53.887Z,72.64
2019-01-12T11:30:53.918Z,72.96
2019-01-12T11:31:53.911Z,72.54
2019-01-12T11:32:53.866Z,73.26
2019-01-12T11:33:53.846Z,72.96
2019-01-12T11:35:01.487Z,73.50
2019-01-12T11:35:53.878Z,71.96
2019-01-12T11:36:53.813Z,73.30
2019-01-12T11:37:53.797Z,72.47
2019-01-12T11:38:53.789Z,74.02
2019-01-12T11:39:53.779Z,73.40
2019-01-12T11:40:53.764Z,73.57
2019-01-12T11:41:54.022Z,72.68
2019-01-12T11:42:53.739Z,72.68
2019-01-12T11:43:53.729Z,73.91
2019-01-12T11:44:53.716Z,73.81
2019-01-12T11:45:53.706Z,74.22
2019-01-12T11:46:53.734Z,74.12
2019-01-12T11:47:53.690Z,73.71
2019-01-12T11:48:53.738Z,73.09
2019-01-12T11:49:53.662Z,73.98
2019-01-12T11:50:53.650Z,73.88
2019-01-12T11:51:53.665Z,73.26
2019-01-12T11:52:53.634Z,73.36
2019-01-12T11:53:53.635Z,73.68
2019-01-12T11:54:53.646Z,73.78
2019-01-12T11:55:53.602Z,74.08
2019-01-12T11:56:53.583Z,74.08
2019-01-12T11:57:53.601Z,73.78
2019-01-12T11:58:53.591Z,73.74
2019-01-12T11:59:53.555Z,73.47
2019-01-12T12:00:53.603Z,73.78
2019-01-12T12:01:53.535Z,74.50
2019-01-12T12:02:53.543Z,75.52
2019-01-12T12:03:53.547Z,75.01
2019-01-12T12:04:53.495Z,74.08
2019-01-12T12:06:01.642Z,74.57
2019-01-12T12:06:53.555Z,74.57
2019-01-12T12:07:53.460Z,74.67
2019-01-12T12:08:53.515Z,74.46
2019-01-12T12:09:53.454Z,74.15
2019-01-12T12:10:53.442Z,74.46
2019-01-12T12:11:53.426Z,76.21
2019-01-12T12:12:53.411Z,74.77
2019-01-12T12:13:53.406Z,73.88
2019-01-12T12:14:53.440Z,73.98
2019-01-12T12:15:53.373Z,74.36
2019-01-12T12:16:53.417Z,74.05
2019-01-12T12:17:53.356Z,74.29
2019-01-12T12:18:53.344Z,73.57
2019-01-12T12:19:53.341Z,73.88
2019-01-12T12:20:53.374Z,72.96
2019-01-12T12:21:53.310Z,73.88
2019-01-12T12:22:53.307Z,73.68
2019-01-12T12:23:53.313Z,74.60
2019-01-12T12:24:53.283Z,74.60
2019-01-12T12:25:53.274Z,74.50
2019-01-12T12:26:53.337Z,74.60
2019-01-12T12:27:53.247Z,73.06
2019-01-12T12:28:53.233Z,73.74
2019-01-12T12:29:53.245Z,72.92
2019-01-12T12:30:53.209Z,73.91
2019-01-12T12:31:53.258Z,74.02
2019-01-12T12:32:53.192Z,72.78
2019-01-12T12:33:53.186Z,73.91
2019-01-12T12:34:53.171Z,72.38
2019-01-12T12:35:53.243Z,72.38
2019-01-12T12:36:53.164Z,72.27
2019-01-12T12:37:53.153Z,72.58
2019-01-12T12:38:53.127Z,72.68
2019-01-12T12:39:53.132Z,72.38
2019-01-12T12:40:53.114Z,72.17
2019-01-12T12:41:53.150Z,72.99
2019-01-12T12:42:53.096Z,73.19
2019-01-12T12:43:53.066Z,72.41
2019-01-12T12:44:53.057Z,72.72
2019-01-12T12:45:53.049Z,73.44
2019-01-12T12:46:53.036Z,74.05
2019-01-12T12:47:53.084Z,74.15
2019-01-12T12:48:53.005Z,74.15
2019-01-12T12:49:53.009Z,73.81
2019-01-12T12:50:52.994Z,73.91
2019-01-12T12:51:52.981Z,73.95
2019-01-12T12:52:52.967Z,73.36
2019-01-12T12:53:53.046Z,74.29